Time;durP1;ratioP1;P1;durP2;ratioP2;P2;SDS_P1;SDS_P2;PMS_P1;PMS_P2;Temp;Humidity;BMP_temperature;BMP_pressure;BME280_temperature;BME280_humidity;BME280_pressure;Samples;Min_cycle;Max_cycle;Signal;HPM_P1;HPM_P2
2023/03/04 00:02:17;;;;;;;16.48;8.25;;;;;;;6.52;96.60;94652.63;5145190;27;20204;-77
2023/03/04 00:04:44;;;;;;;20.15;8.32;;;;;;;6.29;96.88;94657.91;5140526;27;20204;-79
2023/03/04 00:07:11;;;;;;;22.20;11.05;;;;;;;5.98;98.14;94656.94;5137635;27;20663;-79
2023/03/04 00:09:38;;;;;;;24.75;11.05;;;;;;;5.95;98.04;94657.53;5146834;27;20232;-77
2023/03/04 00:12:07;;;;;;;21.65;10.25;;;;;;;5.88;98.90;94654.38;5148649;27;20197;-77
2023/03/04 00:14:34;;;;;;;18.17;10.05;;;;;;;5.72;99.63;94643.94;5131042;27;20263;-77
2023/03/04 00:17:03;;;;;;;23.00;9.20;;;;;;;5.48;100.00;94637.09;5134657;27;20824;-78
2023/03/04 00:19:29;;;;;;;19.13;10.40;;;;;;;5.49;100.00;94642.19;5140786;27;20764;-78
2023/03/04 00:21:56;;;;;;;18.48;8.82;;;;;;;5.33;100.00;94640.84;5130959;27;20590;-77
2023/03/04 00:24:23;;;;;;;16.67;7.55;;;;;;;5.30;100.00;94641.44;5142100;27;20658;-77
2023/03/04 00:26:50;;;;;;;17.42;7.25;;;;;;;5.31;100.00;94653.78;5134153;27;20217;-78
2023/03/04 00:29:18;;;;;;;10.65;5.07;;;;;;;5.25;100.00;94645.00;5143687;27;20235;-77
2023/03/04 00:31:45;;;;;;;12.57;7.10;;;;;;;5.41;100.00;94645.53;5133688;27;20724;-77
2023/03/04 00:34:12;;;;;;;14.68;7.03;;;;;;;5.32;100.00;94644.63;5134696;27;20197;-78
2023/03/04 00:36:38;;;;;;;14.75;6.82;;;;;;;5.43;100.00;94646.06;5145568;27;20205;-78
2023/03/04 00:39:06;;;;;;;14.88;6.90;;;;;;;5.45;100.00;94637.72;5144080;27;20204;-77
2023/03/04 00:41:32;;;;;;;13.98;7.55;;;;;;;5.52;100.00;94638.91;5138927;27;20228;-78
2023/03/04 00:43:59;;;;;;;14.50;6.93;;;;;;;5.70;100.00;94643.44;5139732;27;20250;-78
2023/03/04 00:46:27;;;;;;;14.00;6.68;;;;;;;5.93;100.00;94649.75;5137095;27;20204;-78
2023/03/04 00:48:54;;;;;;;14.57;7.60;;;;;;;6.03;100.00;94632.63;5151957;27;20227;-78
2023/03/04 00:51:21;;;;;;;14.35;6.05;;;;;;;6.11;99.88;94642.69;5137997;27;20747;-77
2023/03/04 00:53:47;;;;;;;14.95;7.38;;;;;;;6.23;98.87;94634.91;5152109;27;20606;-77
2023/03/04 00:56:14;;;;;;;15.27;7.50;;;;;;;6.10;98.53;94637.63;5145652;27;20205;-78
2023/03/04 00:58:41;;;;;;;17.65;8.55;;;;;;;6.17;98.70;94633.41;5144621;27;20261;-78
2023/03/04 01:01:08;;;;;;;13.07;6.95;;;;;;;6.25;98.76;94630.03;5137266;27;20260;-77
2023/03/04 01:03:36;;;;;;;15.50;7.05;;;;;;;6.23;97.54;94640.31;5138460;27;20254;-77
2023/03/04 01:06:03;;;;;;;20.25;8.15;;;;;;;6.35;97.40;94629.81;5144490;27;20678;-77
2023/03/04 01:08:29;;;;;;;13.43;7.32;;;;;;;6.26;97.18;94637.00;5144632;27;20228;-77
2023/03/04 01:10:56;;;;;;;16.83;8.77;;;;;;;6.40;97.28;94629.72;5131138;27;20197;-77
2023/03/04 01:13:23;;;;;;;12.00;6.60;;;;;;;6.35;96.76;94629.03;5144589;27;20272;-77
2023/03/04 01:15:50;;;;;;;15.20;7.18;;;;;;;6.36;97.30;94619.88;5130350;27;20281;-77
2023/03/04 01:18:16;;;;;;;17.45;8.27;;;;;;;6.39;96.68;94620.06;5131044;27;20278;-78
2023/03/04 01:20:45;;;;;;;11.82;6.78;;;;;;;6.40;96.70;94618.97;5138192;27;20872;-78
2023/03/04 01:23:11;;;;;;;14.25;7.53;;;;;;;6.50;96.42;94611.78;5137492;27;20266;-77
2023/03/04 01:25:39;;;;;;;14.30;6.40;;;;;;;6.47;96.26;94615.06;5142753;27;20205;-78
2023/03/04 01:28:06;;;;;;;12.80;6.90;;;;;;;6.33;96.59;94609.69;5145388;27;20241;-77
2023/03/04 01:30:33;;;;;;;15.30;7.47;;;;;;;6.13;96.80;94610.13;5142587;27;20249;-78
2023/03/04 01:32:59;;;;;;;12.30;6.57;;;;;;;5.94;97.57;94605.66;5144390;27;20204;-78
2023/03/04 01:35:26;;;;;;;13.70;6.90;;;;;;;6.05;97.97;94614.31;5141936;27;20201;-77
2023/03/04 01:37:54;;;;;;;13.32;7.53;;;;;;;5.95;98.06;94609.94;5130528;27;20193;-78
2023/03/04 01:40:21;;;;;;;13.52;7.05;;;;;;;5.82;98.75;94602.63;5139582;27;20650;-77
2023/03/04 01:42:48;;;;;;;12.40;6.90;;;;;;;5.64;99.08;94598.91;5137712;27;20273;-78
2023/03/04 01:45:18;;;;;;;14.93;7.20;;;;;;;5.75;99.06;94596.03;5142096;27;20253;-78
2023/03/04 01:47:48;;;;;;;16.33;7.88;;;;;;;5.81;98.83;94598.34;5133817;27;20608;-77
2023/03/04 01:50:20;;;;;;;13.45;6.63;;;;;;;5.89;98.59;94597.66;5150731;27;20288;-77
2023/03/04 01:52:47;;;;;;;16.33;7.40;;;;;;;5.96;98.02;94589.22;5137026;27;20279;-77
2023/03/04 01:55:21;;;;;;;13.57;7.07;;;;;;;5.83;97.34;94587.28;5138870;27;20193;-77
2023/03/04 01:57:50;;;;;;;15.02;5.90;;;;;;;5.77;96.95;94597.34;5144540;27;20230;-78
2023/03/04 02:00:24;;;;;;;13.40;7.15;;;;;;;5.85;97.86;94593.16;5130446;27;20260;-78
2023/03/04 02:02:55;;;;;;;11.60;5.93;;;;;;;5.85;96.85;94587.81;5137675;27;20184;-76
2023/03/04 02:05:23;;;;;;;14.05;6.60;;;;;;;5.79;97.09;94594.34;5134891;27;20257;-77
2023/03/04 02:07:51;;;;;;;11.90;6.03;;;;;;;5.92;97.28;94590.91;5138573;27;20204;-77
2023/03/04 02:10:19;;;;;;;13.90;7.13;;;;;;;6.10;96.72;94589.22;5136569;27;20225;-77
2023/03/04 02:12:46;;;;;;;15.98;8.15;;;;;;;6.09;96.13;94587.63;5140984;27;20282;-77
2023/03/04 02:15:13;;;;;;;11.48;6.78;;;;;;;6.16;95.83;94586.09;5142927;27;20783;-78
2023/03/04 02:17:40;;;;;;;14.38;6.78;;;;;;;6.21;95.44;94583.31;5129265;27;20280;-78
2023/03/04 02:20:16;;;;;;;14.75;6.97;;;;;;;5.79;95.83;94556.72;5132103;27;20201;-78
2023/03/04 02:22:50;;;;;;;11.00;6.22;;;;;;;5.88;96.15;94584.50;5140228;27;20257;-77
2023/03/04 02:25:24;;;;;;;14.55;7.57;;;;;;;5.82;96.66;94588.38;5134091;27;20714;-78
2023/03/04 02:27:52;;;;;;;13.48;6.78;;;;;;;5.77;96.39;94586.59;5136725;27;20274;-78
2023/03/04 02:30:24;;;;;;;13.52;6.97;;;;;;;5.80;96.39;94586.00;5143305;27;20293;-77
2023/03/04 02:32:51;;;;;;;13.57;7.25;;;;;;;5.83;96.01;94585.41;5143497;27;20188;-78
2023/03/04 02:35:19;;;;;;;16.33;7.25;;;;;;;5.77;96.37;94581.22;5140037;27;20832;-77
2023/03/04 02:37:46;;;;;;;15.07;7.20;;;;;;;5.65;96.23;94584.38;5130326;27;20221;-77
2023/03/04 02:40:16;;;;;;;11.45;6.35;;;;;;;5.82;95.91;94574.94;5142084;27;20196;-77
2023/03/04 02:42:48;;;;;;;15.07;7.45;;;;;;;5.81;95.59;94574.16;5143751;27;20189;-78
2023/03/04 02:45:38;;;;;;;13.65;6.63;;;;;;;5.94;95.30;94569.91;5138414;27;20216;-78
2023/03/04 02:48:06;;;;;;;10.50;5.75;;;;;;;5.95;95.62;94566.13;5135463;27;20197;-78
2023/03/04 02:50:35;;;;;;;13.55;6.90;;;;;;;5.88;95.43;94571.03;5136695;27;20232;-78
2023/03/04 02:53:02;;;;;;;12.95;6.88;;;;;;;5.80;95.59;94574.44;5136538;27;20207;-77
2023/03/04 02:55:29;;;;;;;11.68;6.63;;;;;;;5.72;95.34;94574.06;5135783;27;20616;-78
2023/03/04 02:57:56;;;;;;;14.88;6.15;;;;;;;5.36;96.14;94562.38;5142577;27;20265;-77
2023/03/04 03:00:23;;;;;;;14.48;6.97;;;;;;;5.35;96.64;94571.50;5142809;27;20797;-76
2023/03/04 03:02:51;;;;;;;14.82;7.35;;;;;;;5.29;97.27;94570.81;5129588;28;20213;-77
2023/03/04 03:05:18;;;;;;;14.32;7.32;;;;;;;5.24;97.51;94572.78;5143174;27;20260;-78
2023/03/04 03:07:45;;;;;;;13.50;7.15;;;;;;;5.13;97.78;94576.75;5128819;28;20728;-77
2023/03/04 03:10:12;;;;;;;13.43;7.03;;;;;;;5.03;98.10;94577.72;5128843;28;20644;-78
2023/03/04 03:12:39;;;;;;;12.93;6.53;;;;;;;4.98;98.96;94581.28;5137224;27;20279;-78
2023/03/04 03:15:07;;;;;;;12.23;6.10;;;;;;;4.93;99.19;94567.91;5147866;27;20308;-78
2023/03/04 03:17:34;;;;;;;12.02;6.90;;;;;;;4.94;99.87;94574.09;5128710;28;20245;-76
2023/03/04 03:20:02;;;;;;;12.23;6.75;;;;;;;5.02;99.19;94575.31;5142579;27;20876;-77
2023/03/04 03:22:29;;;;;;;14.35;7.28;;;;;;;4.94;99.12;94572.19;5129186;28;20201;-77
2023/03/04 03:24:55;;;;;;;12.68;6.00;;;;;;;4.77;99.85;94585.38;5132134;27;20360;-77
2023/03/04 03:27:22;;;;;;;12.10;6.25;;;;;;;4.63;100.00;94584.53;5143959;27;20301;-78
2023/03/04 03:29:49;;;;;;;13.02;7.00;;;;;;;4.61;100.00;94575.97;5146631;27;20258;-79
2023/03/04 03:32:16;;;;;;;9.35;5.60;;;;;;;4.73;100.00;94573.63;5142235;27;20305;-78
2023/03/04 03:34:43;;;;;;;11.18;6.05;;;;;;;4.82;100.00;94577.22;5148691;27;20204;-78
2023/03/04 03:37:11;;;;;;;14.43;6.70;;;;;;;4.75;100.00;94567.97;5132894;27;20224;-77
2023/03/04 03:39:38;;;;;;;13.38;6.57;;;;;;;4.78;100.00;94573.56;5135421;27;20196;-77
2023/03/04 03:42:04;;;;;;;11.82;6.80;;;;;;;4.71;100.00;94575.81;5143886;27;20228;-78
2023/03/04 03:44:31;;;;;;;16.02;7.03;;;;;;;4.69;100.00;94561.06;5149030;27;20265;-77
2023/03/04 03:46:58;;;;;;;11.52;5.88;;;;;;;4.68;100.00;94565.66;5144029;27;20189;-79
2023/03/04 03:49:25;;;;;;;8.60;5.03;;;;;;;4.49;100.00;94562.19;5145727;27;20276;-77
2023/03/04 03:51:52;;;;;;;11.13;6.38;;;;;;;4.28;100.00;94562.47;5142509;27;20253;-77
2023/03/04 03:54:20;;;;;;;12.55;5.65;;;;;;;4.27;100.00;94558.19;5139041;27;20212;-78
2023/03/04 03:56:46;;;;;;;6.38;4.18;;;;;;;4.26;100.00;94564.63;5142657;27;20580;-76
2023/03/04 03:59:13;;;;;;;9.40;4.90;;;;;;;4.23;100.00;94562.56;5146151;27;20265;-78
2023/03/04 04:01:40;;;;;;;7.53;4.28;;;;;;;4.17;100.00;94563.72;5143002;27;20256;-77
2023/03/04 04:04:07;;;;;;;11.23;5.90;;;;;;;4.13;100.00;94554.63;5139173;27;20200;-77
2023/03/04 04:06:33;;;;;;;11.13;5.28;;;;;;;4.12;100.00;94552.25;5152882;27;20273;-77
2023/03/04 04:09:00;;;;;;;13.52;5.53;;;;;;;4.19;100.00;94547.34;5139924;27;20212;-77
2023/03/04 04:11:28;;;;;;;9.80;5.32;;;;;;;4.20;100.00;94555.09;5142102;27;20667;-77
2023/03/04 04:13:55;;;;;;;15.60;7.18;;;;;;;4.17;100.00;94549.50;5150203;27;20245;-78
2023/03/04 04:16:22;;;;;;;12.30;5.93;;;;;;;4.20;100.00;94554.28;5141606;27;20558;-78
2023/03/04 04:18:48;;;;;;;11.63;6.50;;;;;;;4.29;100.00;94541.81;5145327;27;20205;-78
2023/03/04 04:21:15;;;;;;;14.63;6.57;;;;;;;4.11;100.00;94556.81;5142847;27;20207;-77
2023/03/04 04:23:42;;;;;;;12.90;6.35;;;;;;;4.07;100.00;94558.50;5138438;27;20200;-77
2023/03/04 04:26:09;;;;;;;11.13;6.03;;;;;;;3.96;100.00;94548.19;5141040;27;20216;-77
2023/03/04 04:28:37;;;;;;;16.13;7.43;;;;;;;4.03;100.00;94553.97;5137590;27;20204;-77
2023/03/04 04:31:07;;;;;;;14.52;6.93;;;;;;;3.90;100.00;94553.59;5152456;27;20228;-77
2023/03/04 04:33:34;;;;;;;13.23;6.43;;;;;;;3.86;100.00;94554.47;5135013;27;20268;-77
2023/03/04 04:36:02;;;;;;;13.68;6.25;;;;;;;3.85;100.00;94555.53;5145221;27;20212;-77
2023/03/04 04:38:29;;;;;;;14.13;7.22;;;;;;;3.82;100.00;94564.16;5138774;27;20303;-78
2023/03/04 04:40:57;;;;;;;11.00;5.95;;;;;;;3.77;100.00;94562.34;5138141;27;20221;-78
2023/03/04 04:43:23;;;;;;;15.32;6.43;;;;;;;3.77;100.00;94553.50;5131340;27;20253;-77
2023/03/04 04:45:52;;;;;;;12.80;6.45;;;;;;;3.77;100.00;94550.81;5131888;27;20257;-76
2023/03/04 04:48:18;;;;;;;16.52;6.90;;;;;;;3.68;100.00;94549.88;5139283;27;20193;-78
2023/03/04 04:50:45;;;;;;;15.10;7.15;;;;;;;3.64;100.00;94549.66;5137512;27;20282;-77
2023/03/04 04:53:12;;;;;;;14.68;6.88;;;;;;;3.53;100.00;94551.66;5144734;27;20232;-78
2023/03/04 04:55:39;;;;;;;11.55;5.40;;;;;;;3.54;100.00;94557.81;5144951;27;20857;-77
2023/03/04 04:58:06;;;;;;;18.73;6.45;;;;;;;3.64;100.00;94567.59;5138789;27;20265;-77
2023/03/04 05:00:33;;;;;;;11.85;5.88;;;;;;;3.77;100.00;94556.19;5146630;27;20279;-79
2023/03/04 05:03:01;;;;;;;12.90;5.97;;;;;;;3.76;100.00;94565.31;5143582;27;20205;-75
2023/03/04 05:05:28;;;;;;;10.20;5.03;;;;;;;3.81;100.00;94567.94;5136524;27;20273;-78
2023/03/04 05:07:54;;;;;;;12.38;5.72;;;;;;;3.91;100.00;94567.81;5139854;27;20251;-76
2023/03/04 05:10:21;;;;;;;10.70;5.20;;;;;;;3.96;100.00;94570.44;5136370;27;20994;-76
2023/03/04 05:12:48;;;;;;;16.55;5.70;;;;;;;3.99;100.00;94577.88;5140057;27;20230;-78
2023/03/04 05:15:15;;;;;;;8.50;4.13;;;;;;;4.02;100.00;94574.63;5149175;27;20236;-78
2023/03/04 05:17:42;;;;;;;7.43;4.22;;;;;;;3.94;100.00;94572.59;5132401;27;20254;-78
2023/03/04 05:20:11;;;;;;;7.68;4.18;;;;;;;4.14;100.00;94583.03;5131159;27;20339;-77
2023/03/04 05:22:38;;;;;;;10.63;4.72;;;;;;;4.35;100.00;94582.78;5130691;27;20608;-79
2023/03/04 05:25:05;;;;;;;9.30;4.75;;;;;;;4.58;99.94;94581.91;5144803;27;20229;-79
2023/03/04 05:27:32;;;;;;;9.30;5.05;;;;;;;4.71;98.11;94585.72;5130610;27;20737;-79
2023/03/04 05:29:59;;;;;;;9.07;4.80;;;;;;;4.83;98.29;94589.56;5130607;27;20261;-79
2023/03/04 05:32:26;;;;;;;9.40;4.47;;;;;;;4.94;97.15;94588.31;5141557;27;20291;-79
2023/03/04 05:34:53;;;;;;;8.02;4.20;;;;;;;5.09;96.88;94589.94;5148294;27;20603;-79
2023/03/04 05:37:21;;;;;;;10.48;4.90;;;;;;;5.20;95.28;94590.56;5139610;27;20261;-77
2023/03/04 05:39:48;;;;;;;10.07;5.10;;;;;;;5.11;95.65;94590.47;5130554;27;20217;-78
2023/03/04 05:42:15;;;;;;;10.57;4.95;;;;;;;5.23;95.29;94587.31;5142099;27;20692;-77
2023/03/04 05:44:41;;;;;;;12.90;6.22;;;;;;;5.23;93.13;94592.66;5136968;27;20606;-77
2023/03/04 05:47:08;;;;;;;11.38;5.72;;;;;;;5.37;93.58;94585.44;5138915;27;20269;-77
2023/03/04 05:49:35;;;;;;;13.88;6.95;;;;;;;5.48;94.29;94592.22;5144186;27;20254;-78
2023/03/04 05:52:02;;;;;;;12.48;5.82;;;;;;;5.59;94.87;94590.16;5142300;27;20678;-78
2023/03/04 05:54:30;;;;;;;16.40;6.13;;;;;;;5.55;94.42;94595.34;5144551;27;20196;-78
2023/03/04 05:56:57;;;;;;;10.88;5.97;;;;;;;5.49;93.71;94598.41;5138358;27;20205;-79
2023/03/04 05:59:24;;;;;;;12.82;6.00;;;;;;;5.67;93.26;94592.16;5136419;27;20196;-77
2023/03/04 06:01:50;;;;;;;15.07;5.70;;;;;;;5.48;92.88;94589.53;5138392;27;20201;-79
2023/03/04 06:04:17;;;;;;;11.25;5.65;;;;;;;5.53;93.85;94597.50;5144661;27;20258;-79
2023/03/04 06:06:45;;;;;;;9.65;4.93;;;;;;;5.50;95.08;94608.84;5143352;27;20200;-78
2023/03/04 06:09:12;;;;;;;13.35;6.70;;;;;;;5.66;94.40;94602.09;5130999;27;20250;-78
2023/03/04 06:11:40;;;;;;;14.27;6.85;;;;;;;5.60;94.89;94600.59;5143119;27;20706;-78
2023/03/04 06:14:07;;;;;;;11.90;5.95;;;;;;;5.59;94.25;94612.47;5136475;27;20277;-79
2023/03/04 06:16:34;;;;;;;13.85;7.18;;;;;;;5.23;95.57;94612.25;5137194;27;20544;-79
2023/03/04 06:19:01;;;;;;;16.70;7.80;;;;;;;5.02;96.43;94612.91;5136843;27;20222;-76
2023/03/04 06:21:27;;;;;;;16.35;7.22;;;;;;;5.18;96.90;94609.69;5136992;27;20201;-77
2023/03/04 06:23:54;;;;;;;12.68;6.93;;;;;;;5.22;95.89;94616.03;5129279;27;20200;-77
2023/03/04 06:26:21;;;;;;;17.58;7.47;;;;;;;5.41;95.32;94616.00;5143421;27;20276;-76
2023/03/04 06:28:49;;;;;;;14.82;6.68;;;;;;;5.30;95.79;94611.91;5137106;27;20204;-79
2023/03/04 06:31:16;;;;;;;18.08;7.70;;;;;;;5.56;95.10;94617.63;5135185;27;20232;-78
2023/03/04 06:33:43;;;;;;;16.60;7.72;;;;;;;5.87;95.30;94612.50;5134673;27;20205;-79
2023/03/04 06:36:09;;;;;;;18.08;8.05;;;;;;;6.18;93.67;94608.13;5135530;27;20254;-79
2023/03/04 06:38:36;;;;;;;19.95;7.97;;;;;;;6.38;91.98;94604.22;5138524;27;20204;-78
2023/03/04 06:41:07;;;;;;;14.82;7.85;;;;;;;6.43;90.13;94604.09;5136230;27;20205;-79
2023/03/04 06:43:34;;;;;;;13.05;7.20;;;;;;;6.28;91.62;94616.00;5142372;27;20288;-80
2023/03/04 06:46:03;;;;;;;18.35;8.50;;;;;;;6.49;92.78;94607.47;5146973;27;20235;-80
2023/03/04 06:48:30;;;;;;;19.60;9.35;;;;;;;6.43;91.88;94615.66;5141831;27;20197;-79
2023/03/04 06:50:56;;;;;;;17.73;8.95;;;;;;;6.48;91.36;94620.13;5142933;27;20702;-77
2023/03/04 06:53:23;;;;;;;15.90;9.25;;;;;;;6.50;92.11;94625.22;5136052;27;20250;-78
2023/03/04 06:55:50;;;;;;;18.92;9.30;;;;;;;6.57;91.30;94621.00;5142854;27;20655;-78
2023/03/04 06:58:17;;;;;;;20.10;9.48;;;;;;;6.70;92.15;94619.38;5139783;27;20203;-78
2023/03/04 07:00:44;;;;;;;14.10;7.93;;;;;;;6.75;90.60;94627.34;5145143;27;20193;-78
2023/03/04 07:03:12;;;;;;;13.48;7.93;;;;;;;6.65;91.31;94630.28;5139340;27;20204;-78
2023/03/04 07:05:39;;;;;;;16.15;7.88;;;;;;;6.78;90.92;94629.44;5136067;27;20291;-77
2023/03/04 07:08:06;;;;;;;15.60;7.95;;;;;;;6.47;90.02;94625.81;5139068;27;20257;-78
2023/03/04 07:10:33;;;;;;;20.50;8.38;;;;;;;6.48;91.99;94635.50;5142843;27;20228;-79
2023/03/04 07:13:00;;;;;;;18.60;6.90;;;;;;;6.37;91.54;94622.25;5129360;28;20204;-80
2023/03/04 07:15:28;;;;;;;17.08;7.95;;;;;;;6.37;91.42;94627.63;5129683;28;20233;-78
2023/03/04 07:17:54;;;;;;;14.95;7.85;;;;;;;6.54;92.19;94631.59;5129579;27;20613;-82
2023/03/04 07:20:23;;;;;;;12.20;7.45;;;;;;;6.66;91.93;94631.88;5148427;27;20260;-80
2023/03/04 07:22:49;;;;;;;16.30;7.35;;;;;;;6.67;91.00;94633.47;5150312;27;20196;-83
2023/03/04 07:25:17;;;;;;;22.55;7.50;;;;;;;6.77;91.45;94625.97;5135715;27;20596;-87
2023/03/04 07:27:43;;;;;;;19.00;8.75;;;;;;;6.87;90.39;94635.69;5137942;27;20229;-81
2023/03/04 07:30:11;;;;;;;17.95;8.52;;;;;;;7.05;90.24;94632.06;5128821;28;20265;-81
2023/03/04 07:32:38;;;;;;;15.63;8.23;;;;;;;7.16;89.33;94637.19;5130554;28;20219;-78
2023/03/04 07:35:06;;;;;;;16.05;8.07;;;;;;;7.09;89.51;94630.34;5136197;27;20203;-79
2023/03/04 07:37:34;;;;;;;17.38;8.65;;;;;;;7.14;88.72;94635.59;5137534;27;20208;-79
2023/03/04 07:40:06;;;;;;;12.90;6.93;;;;;;;6.91;87.80;94628.63;5148256;27;20228;-80
2023/03/04 07:42:33;;;;;;;14.10;6.85;;;;;;;6.96;87.85;94633.91;5135742;27;20204;-77
2023/03/04 07:45:00;;;;;;;14.02;7.03;;;;;;;7.02;87.40;94635.34;5142583;27;20208;-77
2023/03/04 07:47:28;;;;;;;13.80;7.05;;;;;;;7.19;87.57;94631.22;5143243;27;20196;-78
2023/03/04 07:49:55;;;;;;;19.73;7.68;;;;;;;6.63;87.01;94624.41;5136845;27;20196;-79
2023/03/04 07:52:21;;;;;;;20.20;9.10;;;;;;;6.70;87.87;94627.47;5135924;27;20339;-79
2023/03/04 07:54:49;;;;;;;12.90;7.50;;;;;;;6.59;87.64;94628.78;5144632;27;20565;-79
2023/03/04 07:57:16;;;;;;;16.63;8.27;;;;;;;7.06;87.48;94627.47;5134385;27;20205;-79
2023/03/04 07:59:43;;;;;;;16.95;8.27;;;;;;;7.46;85.58;94620.28;5136708;27;20204;-78
2023/03/04 08:02:10;;;;;;;17.70;8.68;;;;;;;8.03;83.69;94617.75;5134506;27;20269;-78
2023/03/04 08:04:37;;;;;;;11.45;5.40;;;;;;;7.86;81.24;94580.69;5128963;27;20277;-78
2023/03/04 08:07:04;;;;;;;11.77;6.63;;;;;;;7.41;82.90;94626.59;5130347;27;20667;-78
2023/03/04 08:09:31;;;;;;;14.38;8.02;;;;;;;7.57;83.28;94621.63;5140315;27;20212;-77
2023/03/04 08:11:59;;;;;;;14.77;7.47;;;;;;;7.39;84.23;94620.72;5144801;27;20604;-78
2023/03/04 08:14:26;;;;;;;21.30;7.80;;;;;;;7.77;82.31;94621.13;5141601;27;20300;-79
2023/03/04 08:16:52;;;;;;;16.30;6.68;;;;;;;8.16;80.16;94617.63;5139859;27;20245;-78
2023/03/04 08:19:19;;;;;;;12.40;6.82;;;;;;;8.44;79.98;94612.81;5141224;27;20734;-79
2023/03/04 08:21:46;;;;;;;13.75;6.78;;;;;;;8.71;78.48;94613.66;5142002;27;20257;-80
2023/03/04 08:24:13;;;;;;;17.80;6.55;;;;;;;8.50;79.11;94611.56;5142541;27;20244;-79
2023/03/04 08:26:43;;;;;;;15.02;7.07;;;;;;;8.69;78.79;94610.47;5142748;27;20205;-79
2023/03/04 08:29:13;;;;;;;15.07;7.10;;;;;;;8.76;78.70;94611.59;5143040;27;21563;-78
2023/03/04 08:31:40;;;;;;;21.27;11.18;;;;;;;9.01;76.95;94610.03;5146049;27;20216;-78
2023/03/04 08:34:09;;;;;;;14.45;7.03;;;;;;;10.34;89.50;94604.50;5147313;27;20257;-79
2023/03/04 08:36:36;;;;;;;11.07;6.15;;;;;;;11.19;92.13;94599.63;5136905;27;20684;-78
2023/03/04 08:39:03;;;;;;;15.48;6.93;;;;;;;11.68;81.94;94587.03;5140294;27;20221;-78
2023/03/04 08:41:30;;;;;;;16.23;7.55;;;;;;;12.30;80.06;94585.25;5134043;27;20238;-79
2023/03/04 08:43:57;;;;;;;13.48;7.47;;;;;;;12.59;71.81;94590.41;5137292;27;20193;-79
2023/03/04 08:46:25;;;;;;;11.55;6.38;;;;;;;12.63;71.51;94577.75;5138439;27;20205;-81
2023/03/04 08:48:52;;;;;;;14.20;9.48;;;;;;;11.24;70.19;94591.28;5139755;27;20205;-77
2023/03/04 08:51:18;;;;;;;15.30;6.80;;;;;;;10.30;76.25;94587.31;5137056;27;20276;-78
2023/03/04 08:53:45;;;;;;;15.15;6.78;;;;;;;10.05;74.60;94588.19;5139278;27;20245;-79
2023/03/04 08:56:13;;;;;;;20.48;10.48;;;;;;;9.93;71.00;94591.59;5145168;27;20192;-78
2023/03/04 08:58:40;;;;;;;14.57;7.43;;;;;;;9.16;72.62;94601.44;5143043;27;20624;-79
2023/03/04 09:01:09;;;;;;;18.65;7.32;;;;;;;9.52;72.12;94597.59;5131952;27;20593;-80
2023/03/04 09:03:38;;;;;;;17.48;7.85;;;;;;;9.65;72.64;94596.59;5143568;27;20189;-79
2023/03/04 09:06:07;;;;;;;13.63;6.80;;;;;;;9.35;73.04;94597.59;5147917;27;20566;-78
2023/03/04 09:08:34;;;;;;;14.02;8.05;;;;;;;9.02;74.96;94594.63;5139775;27;20209;-79
2023/03/04 09:11:01;;;;;;;12.27;6.80;;;;;;;8.98;75.19;94599.88;5132182;27;20259;-79
2023/03/04 09:13:29;;;;;;;16.73;6.80;;;;;;;8.43;76.27;94589.63;5133098;27;20319;-81
2023/03/04 09:15:56;;;;;;;16.83;7.65;;;;;;;8.21;78.23;94595.09;5143437;27;20316;-79
2023/03/04 09:18:24;;;;;;;18.92;8.27;;;;;;;8.15;78.34;94585.56;5146676;27;20555;-78
2023/03/04 09:20:53;;;;;;;20.95;8.52;;;;;;;8.95;77.00;94589.69;5143017;27;20205;-82
2023/03/04 09:23:20;;;;;;;252.40;74.22;;;;;;;9.21;75.04;94579.66;5146069;27;20212;-82
2023/03/04 09:25:48;;;;;;;23.60;10.98;;;;;;;9.59;72.28;94577.03;5141576;27;20200;-80
2023/03/04 09:28:16;;;;;;;18.77;9.27;;;;;;;9.84;72.46;94567.25;5134534;27;20759;-80
2023/03/04 09:30:43;;;;;;;15.70;8.38;;;;;;;10.07;70.84;94564.31;5141187;27;20662;-82
2023/03/04 09:33:10;;;;;;;14.00;8.07;;;;;;;9.96;70.42;94563.88;5142815;27;20212;-79
2023/03/04 09:35:37;;;;;;;17.70;8.88;;;;;;;10.26;69.99;94572.81;5137545;27;20540;-80
2023/03/04 09:38:06;;;;;;;18.85;8.98;;;;;;;10.54;69.32;94563.09;5144187;27;20220;-80
2023/03/04 09:40:39;;;;;;;8.25;5.32;;;;;;;9.41;70.63;94574.72;5137616;27;20201;-82
2023/03/04 09:43:13;;;;;;;15.57;6.70;;;;;;;8.78;74.01;94579.66;5131519;27;20951;-79
2023/03/04 09:45:44;;;;;;;24.40;10.30;;;;;;;9.16;74.19;94569.00;5137780;27;20566;-79
2023/03/04 09:48:16;;;;;;;18.58;9.15;;;;;;;9.38;73.55;94564.53;5140250;27;20225;-83
2023/03/04 09:50:53;;;;;;;14.85;8.60;;;;;;;9.10;73.41;94564.88;5139177;27;20275;-84
2023/03/04 09:53:30;;;;;;;19.02;7.78;;;;;;;9.49;71.91;94563.06;5139585;27;20181;-82
2023/03/04 09:55:58;;;;;;;17.65;8.38;;;;;;;9.77;70.42;94560.75;5136405;27;20208;-79
2023/03/04 09:58:41;;;;;;;21.23;8.32;;;;;;;10.48;68.78;94537.34;5129730;27;20205;-81
2023/03/04 10:01:13;;;;;;;18.55;8.40;;;;;;;10.71;67.66;94545.94;5131685;27;20257;-79
2023/03/04 10:03:47;;;;;;;21.50;8.52;;;;;;;11.01;67.30;94541.25;5132385;27;20250;-80
2023/03/04 10:06:17;;;;;;;15.68;8.18;;;;;;;10.93;66.40;94539.41;5136260;27;20198;-78
2023/03/04 10:08:54;;;;;;;17.40;8.55;;;;;;;11.36;65.50;94534.38;5132169;27;20265;-79
2023/03/04 10:11:27;;;;;;;18.58;9.23;;;;;;;11.51;65.35;94540.28;5138921;27;20227;-79
2023/03/04 10:14:04;;;;;;;14.75;8.07;;;;;;;11.35;64.87;94531.97;5133191;27;20197;-79
2023/03/04 10:16:37;;;;;;;15.13;7.78;;;;;;;11.24;64.72;94531.63;5139303;27;20744;-79
2023/03/04 10:19:22;;;;;;;14.85;9.02;;;;;;;11.06;65.21;94530.22;5138348;27;20249;-80
2023/03/04 10:21:51;;;;;;;17.55;8.60;;;;;;;9.87;68.03;94534.13;5142840;27;20188;-82
2023/03/04 10:24:21;;;;;;;21.02;10.95;;;;;;;9.85;69.52;94525.53;5141298;27;20216;-80
2023/03/04 10:26:52;;;;;;;17.27;7.95;;;;;;;9.90;69.76;94528.09;5138227;27;20197;-80
2023/03/04 10:29:23;;;;;;;14.25;7.57;;;;;;;9.91;69.07;94523.47;5140910;27;20655;-80
2023/03/04 10:31:50;;;;;;;21.52;12.55;;;;;;;10.53;67.36;94522.81;5139489;27;20220;-80
2023/03/04 10:34:18;;;;;;;20.20;8.75;;;;;;;10.98;65.46;94506.66;5146429;27;20188;-80
2023/03/04 10:36:54;;;;;;;18.75;7.95;;;;;;;10.53;65.66;94499.22;5144015;27;20200;-82
2023/03/04 10:39:27;;;;;;;16.15;7.97;;;;;;;10.63;65.92;94501.56;5140854;27;20269;-80
2023/03/04 10:41:56;;;;;;;15.38;8.38;;;;;;;10.44;66.53;94497.72;5135241;27;21771;-81
2023/03/04 10:44:23;;;;;;;14.65;6.70;;;;;;;10.49;66.02;94495.59;5135826;27;20655;-80
2023/03/04 10:46:54;;;;;;;18.23;10.75;;;;;;;10.04;67.71;94500.00;5140661;27;20644;-77
2023/03/04 10:49:23;;;;;;;27.85;13.93;;;;;;;9.90;68.70;94503.72;5135039;27;20632;-78
2023/03/04 10:51:52;;;;;;;16.92;8.85;;;;;;;10.51;67.77;94487.16;5138105;27;20231;-79
2023/03/04 10:54:27;;;;;;;16.38;8.20;;;;;;;10.76;66.61;94482.66;5137713;27;20660;-79
2023/03/04 10:57:01;;;;;;;13.43;7.22;;;;;;;10.94;66.86;94481.34;5139749;27;20188;-81
2023/03/04 10:59:44;;;;;;;15.30;8.77;;;;;;;10.76;66.19;94482.66;5141118;27;20192;-80
2023/03/04 11:02:20;;;;;;;27.60;12.80;;;;;;;10.76;66.89;94466.41;5139102;27;20576;-78
2023/03/04 11:04:53;;;;;;;19.75;12.13;;;;;;;10.84;65.94;94473.63;5144716;27;20188;-78
2023/03/04 11:07:20;;;;;;;23.30;12.48;;;;;;;10.85;67.43;94464.38;5140855;27;20655;-77
2023/03/04 11:09:48;;;;;;;26.75;12.48;;;;;;;10.91;65.11;94463.06;5139388;27;20593;-79
2023/03/04 11:12:19;;;;;;;16.55;7.55;;;;;;;10.97;65.40;94457.09;5138358;27;20280;-78
2023/03/04 11:14:48;;;;;;;15.90;8.57;;;;;;;10.49;67.36;94456.91;5136334;27;20236;-77
2023/03/04 11:17:24;;;;;;;19.88;9.10;;;;;;;10.16;67.99;94448.66;5139672;27;20250;-80
2023/03/04 11:19:56;;;;;;;15.57;8.35;;;;;;;9.69;69.28;94445.28;5130006;28;20269;-77
2023/03/04 11:22:25;;;;;;;19.45;9.88;;;;;;;9.97;71.11;94441.78;5129209;28;20193;-79
2023/03/04 11:24:59;;;;;;;18.77;8.30;;;;;;;9.92;69.63;94444.69;5143189;27;20661;-78
2023/03/04 11:27:36;;;;;;;15.48;8.88;;;;;;;9.44;72.17;94445.06;5129222;28;20585;-78
2023/03/04 11:30:20;;;;;;;21.45;9.32;;;;;;;9.47;72.88;94430.91;5143076;27;20189;-79
2023/03/04 11:32:51;;;;;;;23.92;11.13;;;;;;;9.94;71.16;94423.50;5142745;27;20275;-77
2023/03/04 11:35:25;;;;;;;15.88;9.23;;;;;;;9.90;72.26;94429.88;5139467;27;20977;-78